createdAt,value
2022-12-04T00:00:47.197Z,4.17
2022-12-04T00:01:47.181Z,4.16
2022-12-04T00:02:47.262Z,4.16
2022-12-04T00:03:47.199Z,4.16
2022-12-04T00:04:47.179Z,4.16
2022-12-04T00:05:47.129Z,4.18
2022-12-04T00:06:47.150Z,4.17
2022-12-04T00:07:47.170Z,4.18
2022-12-04T00:08:47.109Z,4.20
2022-12-04T00:09:47.118Z,4.24
2022-12-04T00:10:47.079Z,4.24
2022-12-04T00:11:47.079Z,4.24
2022-12-04T00:12:47.077Z,4.21
2022-12-04T00:13:47.049Z,4.18
2022-12-04T00:15:23.437Z,4.20
2022-12-04T00:15:48.049Z,4.20
2022-12-04T00:16:47.068Z,4.21
2022-12-04T00:17:47.019Z,4.18
2022-12-04T00:18:47.010Z,4.20
2022-12-04T00:19:47.004Z,4.20
2022-12-04T00:20:46.987Z,4.20
2022-12-04T00:21:47.020Z,4.20
2022-12-04T00:22:46.994Z,4.21
2022-12-04T00:23:46.959Z,4.24
2022-12-04T00:24:46.940Z,4.20
2022-12-04T00:25:46.930Z,4.20
2022-12-04T00:26:46.920Z,4.20
2022-12-04T00:27:46.910Z,4.20
2022-12-04T00:28:46.890Z,4.18
2022-12-04T00:29:46.870Z,4.21
2022-12-04T00:30:46.880Z,4.24
2022-12-04T00:31:47.010Z,4.24
2022-12-04T00:32:46.860Z,4.21
2022-12-04T00:33:46.867Z,4.21
2022-12-04T00:34:46.821Z,4.21
2022-12-04T00:35:46.821Z,4.21
2022-12-04T00:36:46.834Z,4.21
2022-12-04T00:37:46.791Z,4.24
2022-12-04T00:38:46.802Z,4.24
2022-12-04T00:39:46.783Z,4.24
2022-12-04T00:40:46.782Z,4.20
2022-12-04T00:41:46.772Z,4.18
2022-12-04T00:42:46.752Z,4.18
2022-12-04T00:43:46.726Z,4.18
2022-12-04T00:44:46.723Z,4.18
2022-12-04T00:45:46.775Z,4.17
2022-12-04T00:46:46.710Z,4.20
2022-12-04T00:47:46.693Z,4.18
2022-12-04T00:48:46.693Z,4.20
2022-12-04T00:49:46.671Z,4.20
2022-12-04T00:50:46.658Z,4.21
2022-12-04T00:51:46.662Z,4.24
2022-12-04T00:52:46.643Z,4.24
2022-12-04T00:53:46.613Z,4.24
2022-12-04T00:54:46.621Z,4.24
2022-12-04T00:55:46.603Z,4.25
2022-12-04T00:56:46.611Z,4.26
2022-12-04T00:57:46.572Z,4.26
2022-12-04T00:58:46.581Z,4.29
2022-12-04T00:59:46.582Z,4.31
2022-12-04T01:00:46.605Z,4.29
2022-12-04T01:01:46.532Z,4.29
2022-12-04T01:02:46.581Z,4.25
2022-12-04T01:03:46.533Z,4.26
2022-12-04T01:04:46.532Z,4.25
2022-12-04T01:05:46.493Z,4.25
2022-12-04T01:06:46.493Z,4.24
2022-12-04T01:07:46.537Z,4.24
2022-12-04T01:08:46.472Z,4.21
2022-12-04T01:09:46.452Z,4.24
2022-12-04T01:10:46.455Z,4.25
2022-12-04T01:11:46.436Z,4.25
2022-12-04T01:12:46.433Z,4.26
2022-12-04T01:13:46.413Z,4.24
2022-12-04T01:14:46.403Z,4.21
2022-12-04T01:15:46.383Z,4.21
2022-12-04T01:16:46.424Z,4.18
2022-12-04T01:17:46.394Z,4.17
2022-12-04T01:18:46.364Z,4.17
2022-12-04T01:19:46.335Z,4.17
2022-12-04T01:20:46.345Z,4.16
2022-12-04T01:21:46.325Z,4.16
2022-12-04T01:22:46.342Z,4.17
2022-12-04T01:23:46.310Z,4.16
2022-12-04T01:24:46.304Z,4.16
2022-12-04T01:25:46.284Z,4.14
2022-12-04T01:26:46.264Z,4.16
2022-12-04T01:27:46.275Z,4.14
2022-12-04T01:28:46.251Z,4.14
2022-12-04T01:29:46.233Z,4.17
2022-12-04T01:30:46.245Z,4.21
2022-12-04T01:31:46.306Z,4.17
2022-12-04T01:32:46.204Z,4.17
2022-12-04T01:33:46.204Z,4.18
2022-12-04T01:34:46.195Z,4.18
2022-12-04T01:35:46.172Z,4.18
2022-12-04T01:36:46.175Z,4.17
2022-12-04T01:37:46.155Z,4.24
2022-12-04T01:38:46.152Z,4.24
2022-12-04T01:39:46.127Z,4.25
2022-12-04T01:40:46.124Z,4.28
2022-12-04T01:41:46.117Z,4.21
2022-12-04T01:42:46.105Z,4.21
2022-12-04T01:43:46.104Z,4.25
2022-12-04T01:44:46.075Z,4.24
2022-12-04T01:45:46.148Z,4.25
2022-12-04T01:46:46.055Z,4.25
2022-12-04T01:47:46.056Z,4.26
2022-12-04T01:48:46.035Z,4.26
2022-12-04T01:49:46.050Z,4.26
2022-12-04T01:50:46.023Z,4.24
2022-12-04T01:51:46.015Z,4.24
2022-12-04T01:52:45.995Z,4.25
2022-12-04T01:53:45.987Z,4.25
2022-12-04T01:54:45.999Z,4.28
2022-12-04T01:55:45.973Z,4.29
2022-12-04T01:56:45.956Z,4.31
2022-12-04T01:57:45.955Z,4.31
2022-12-04T01:58:45.929Z,4.28
2022-12-04T01:59:45.945Z,4.29
2022-12-04T02:00:49.780Z,4.29
2022-12-04T02:01:46.969Z,4.31
2022-12-04T02:02:45.904Z,4.31
2022-12-04T02:03:45.903Z,4.32
2022-12-04T02:04:45.865Z,4.32
2022-12-04T02:05:45.866Z,4.32
2022-12-04T02:06:45.846Z,4.34
2022-12-04T02:07:45.922Z,4.34
2022-12-04T02:08:45.825Z,4.35
2022-12-04T02:09:45.838Z,4.35
2022-12-04T02:10:45.813Z,4.35
2022-12-04T02:11:45.806Z,4.35
2022-12-04T02:12:45.786Z,4.36
2022-12-04T02:13:45.795Z,4.38
2022-12-04T02:14:45.766Z,4.36
2022-12-04T02:15:45.746Z,4.36
2022-12-04T02:16:45.868Z,4.34
2022-12-04T02:17:45.737Z,4.36
2022-12-04T02:18:45.736Z,4.34
2022-12-04T02:19:45.706Z,4.32
2022-12-04T02:20:45.686Z,4.31
2022-12-04T02:21:45.717Z,4.29
2022-12-04T02:22:45.696Z,4.29
2022-12-04T02:23:45.668Z,4.28
2022-12-04T02:24:50.008Z,4.29
2022-12-04T02:25:45.649Z,4.31
2022-12-04T02:26:45.636Z,4.32
2022-12-04T02:27:45.637Z,4.34
2022-12-04T02:28:45.627Z,4.32
2022-12-04T02:29:45.617Z,4.34
2022-12-04T02:30:45.688Z,4.32
2022-12-04T02:31:45.587Z,4.34
2022-12-04T02:32:45.567Z,4.34
2022-12-04T02:33:45.557Z,4.35
2022-12-04T02:34:45.565Z,4.36
2022-12-04T02:35:45.542Z,4.36
2022-12-04T02:36:45.528Z,4.36
2022-12-04T02:37:45.788Z,4.36
2022-12-04T02:38:45.495Z,4.36
2022-12-04T02:39:45.499Z,4.38
2022-12-04T02:40:45.468Z,4.38
2022-12-04T02:41:45.476Z,4.38
2022-12-04T02:42:45.458Z,4.39
2022-12-04T02:43:45.449Z,4.39
2022-12-04T02:44:45.459Z,4.36
2022-12-04T02:45:45.466Z,4.36
2022-12-04T02:46:45.415Z,4.39
2022-12-04T02:47:45.418Z,4.39
2022-12-04T02:48:45.389Z,4.39
2022-12-04T02:49:45.390Z,4.39
2022-12-04T02:50:45.391Z,4.39
2022-12-04T02:51:45.391Z,4.42
2022-12-04T02:52:45.351Z,4.44
2022-12-04T02:53:45.362Z,4.43
2022-12-04T02:54:45.331Z,4.42
2022-12-04T02:55:45.341Z,4.39
2022-12-04T02:56:45.316Z,4.39
2022-12-04T02:57:45.311Z,4.39
2022-12-04T02:58:45.311Z,4.36
2022-12-04T02:59:45.302Z,4.35
2022-12-04T03:00:45.301Z,4.36
2022-12-04T03:01:45.345Z,4.36
2022-12-04T03:02:45.357Z,4.38
2022-12-04T03:03:45.243Z,4.39
2022-12-04T03:04:45.221Z,4.39
2022-12-04T03:05:45.230Z,4.39
2022-12-04T03:06:45.230Z,4.38
2022-12-04T03:07:45.241Z,4.36
2022-12-04T03:08:45.185Z,4.35
2022-12-04T03:09:45.189Z,4.36
2022-12-04T03:10:45.171Z,4.35
2022-12-04T03:11:45.170Z,4.34
2022-12-04T03:12:45.151Z,4.34
2022-12-04T03:13:45.136Z,4.35
2022-12-04T03:14:45.123Z,4.35
2022-12-04T03:15:45.123Z,4.34
2022-12-04T03:16:45.174Z,4.35
2022-12-04T03:17:45.085Z,4.36
2022-12-04T03:18:45.106Z,4.34
2022-12-04T03:19:45.084Z,4.35
2022-12-04T03:20:45.062Z,4.35
2022-12-04T03:21:45.056Z,4.36
2022-12-04T03:22:45.043Z,4.38
2022-12-04T03:23:45.053Z,4.36
2022-12-04T03:24:45.031Z,4.35
2022-12-04T03:25:45.002Z,4.35
2022-12-04T03:26:44.983Z,4.34
2022-12-04T03:27:45.000Z,4.36
2022-12-04T03:28:44.984Z,4.38
2022-12-04T03:29:44.974Z,4.35
2022-12-04T03:30:45.011Z,4.35
2022-12-04T03:31:44.940Z,4.35
2022-12-04T03:32:44.934Z,4.36
2022-12-04T03:33:44.923Z,4.35
2022-12-04T03:34:44.912Z,4.36
2022-12-04T03:35:44.906Z,4.35
2022-12-04T03:36:44.885Z,4.32
2022-12-04T03:37:44.884Z,4.34
2022-12-04T03:38:44.863Z,4.32
2022-12-04T03:39:44.872Z,4.34
2022-12-04T03:40:44.866Z,4.34
2022-12-04T03:41:49.599Z,4.32
2022-12-04T03:42:45.826Z,4.34
2022-12-04T03:43:44.804Z,4.32
2022-12-04T03:44:44.808Z,4.34
2022-12-04T03:45:44.854Z,4.34
2022-12-04T03:46:44.784Z,4.36
2022-12-04T03:47:44.782Z,4.39
2022-12-04T03:48:44.757Z,4.38
2022-12-04T03:49:44.744Z,4.39
2022-12-04T03:50:44.724Z,4.42
2022-12-04T03:51:44.733Z,4.44
2022-12-04T03:52:44.756Z,4.44
2022-12-04T03:53:44.735Z,4.43
2022-12-04T03:54:44.696Z,4.43
2022-12-04T03:55:44.676Z,4.44
2022-12-04T03:56:44.665Z,4.46
2022-12-04T03:57:44.676Z,4.47
2022-12-04T03:58:44.664Z,4.46
2022-12-04T03:59:44.656Z,4.47
2022-12-04T04:00:44.616Z,4.49
2022-12-04T04:01:44.659Z,4.46
2022-12-04T04:02:44.624Z,4.46
2022-12-04T04:03:44.617Z,4.46
2022-12-04T04:04:44.576Z,4.46
2022-12-04T04:05:44.575Z,4.46
2022-12-04T04:06:44.663Z,4.46
2022-12-04T04:07:44.616Z,4.46
2022-12-04T04:08:44.696Z,4.47
2022-12-04T04:09:44.546Z,4.49
2022-12-04T04:10:44.512Z,4.49
2022-12-04T04:11:44.516Z,4.50
2022-12-04T04:12:44.529Z,4.53
2022-12-04T04:13:44.486Z,4.51
2022-12-04T04:14:44.473Z,4.51
2022-12-04T04:15:44.502Z,4.51
2022-12-04T04:16:44.457Z,4.50
2022-12-04T04:17:44.455Z,4.49
2022-12-04T04:18:44.457Z,4.49
2022-12-04T04:19:44.434Z,4.49
2022-12-04T04:20:44.416Z,4.49
2022-12-04T04:21:44.414Z,4.47
2022-12-04T04:22:44.387Z,4.47
2022-12-04T04:23:44.378Z,4.49
2022-12-04T04:24:44.384Z,4.49
2022-12-04T04:25:44.366Z,4.47
2022-12-04T04:26:44.349Z,4.50
2022-12-04T04:27:44.327Z,4.49
2022-12-04T04:28:44.317Z,4.50
2022-12-04T04:29:49.296Z,4.51
2022-12-04T04:30:45.354Z,4.51
2022-12-04T04:31:44.305Z,4.53
2022-12-04T04:32:44.298Z,4.54
2022-12-04T04:33:44.268Z,4.54
2022-12-04T04:34:44.268Z,4.59
2022-12-04T04:35:44.257Z,4.57
2022-12-04T04:36:44.278Z,4.57
2022-12-04T04:37:44.226Z,4.57
2022-12-04T04:38:44.210Z,4.56
2022-12-04T04:39:44.220Z,4.56
2022-12-04T04:40:44.191Z,4.56
2022-12-04T04:41:44.198Z,4.59
2022-12-04T04:42:44.189Z,4.56
2022-12-04T04:43:44.159Z,4.54
2022-12-04T04:44:44.157Z,4.53
2022-12-04T04:45:44.139Z,4.51
2022-12-04T04:46:44.257Z,4.51
2022-12-04T04:47:44.118Z,4.50
2022-12-04T04:48:44.123Z,4.51
2022-12-04T04:49:44.108Z,4.53
2022-12-04T04:50:44.106Z,4.51
2022-12-04T04:51:44.076Z,4.53
2022-12-04T04:52:44.058Z,4.51
2022-12-04T04:53:44.088Z,4.51
2022-12-04T04:54:44.048Z,4.50
2022-12-04T04:55:44.052Z,4.49
2022-12-04T04:56:44.029Z,4.47
2022-12-04T04:57:44.049Z,4.49
2022-12-04T04:58:44.011Z,4.49
2022-12-04T04:59:43.997Z,4.46
2022-12-04T05:00:43.980Z,4.44
2022-12-04T05:01:44.039Z,4.44
2022-12-04T05:02:44.003Z,4.44
2022-12-04T05:03:43.971Z,4.43
2022-12-04T05:04:43.949Z,4.43
2022-12-04T05:05:43.930Z,4.43
2022-12-04T05:06:43.920Z,4.46
2022-12-04T05:07:43.974Z,4.46
2022-12-04T05:08:43.900Z,4.49
2022-12-04T05:09:43.880Z,4.49
2022-12-04T05:10:43.872Z,4.50
2022-12-04T05:11:43.871Z,4.50
2022-12-04T05:12:43.841Z,4.49
2022-12-04T05:13:43.862Z,4.49
2022-12-04T05:14:43.831Z,4.53
2022-12-04T05:15:43.870Z,4.54
2022-12-04T05:16:43.821Z,4.54
2022-12-04T05:17:43.811Z,4.53
2022-12-04T05:18:43.810Z,4.53
2022-12-04T05:19:43.791Z,4.54
2022-12-04T05:20:43.779Z,4.53
2022-12-04T05:21:43.762Z,4.53
2022-12-04T05:22:43.730Z,4.47
2022-12-04T05:23:43.746Z,4.49
2022-12-04T05:24:43.742Z,4.46
2022-12-04T05:25:43.701Z,4.46
2022-12-04T05:26:43.700Z,4.46
2022-12-04T05:27:43.711Z,4.47
2022-12-04T05:28:43.681Z,4.50
2022-12-04T05:29:43.669Z,4.50
2022-12-04T05:30:43.662Z,4.49
2022-12-04T05:31:43.690Z,4.47
2022-12-04T05:32:43.643Z,4.50
2022-12-04T05:33:43.623Z,4.50
2022-12-04T05:34:43.631Z,4.49
2022-12-04T05:35:43.630Z,4.49
2022-12-04T05:36:43.610Z,4.47
2022-12-04T05:37:43.611Z,4.47
2022-12-04T05:38:43.585Z,4.49
2022-12-04T05:39:43.573Z,4.50
2022-12-04T05:40:43.562Z,4.50
2022-12-04T05:41:43.553Z,4.50
2022-12-04T05:42:43.546Z,4.51
2022-12-04T05:43:43.512Z,4.53
2022-12-04T05:44:43.522Z,4.53
2022-12-04T05:45:43.514Z,4.53
2022-12-04T05:46:43.599Z,4.51
2022-12-04T05:47:43.472Z,4.49
2022-12-04T05:48:43.464Z,4.50
2022-12-04T05:49:43.453Z,4.50
2022-12-04T05:50:43.446Z,4.53
2022-12-04T05:51:43.430Z,4.54
2022-12-04T05:52:43.423Z,4.53
2022-12-04T05:53:43.424Z,4.53
2022-12-04T05:54:43.391Z,4.51
2022-12-04T05:55:43.394Z,4.50
2022-12-04T05:56:43.395Z,4.50
2022-12-04T05:57:43.365Z,4.50
2022-12-04T05:58:43.355Z,4.51
2022-12-04T05:59:43.354Z,4.51
2022-12-04T06:00:43.337Z,4.53
2022-12-04T06:01:43.476Z,4.53
2022-12-04T06:02:43.373Z,4.53
2022-12-04T06:03:43.303Z,4.53
2022-12-04T06:04:43.285Z,4.54
2022-12-04T06:05:43.285Z,4.54
2022-12-04T06:06:43.276Z,4.53
2022-12-04T06:07:43.295Z,4.51
2022-12-04T06:08:43.276Z,4.51
2022-12-04T06:09:43.234Z,4.50
2022-12-04T06:10:43.231Z,4.53
2022-12-04T06:11:43.222Z,4.53
2022-12-04T06:12:43.213Z,4.53
2022-12-04T06:13:43.185Z,4.51
2022-12-04T06:14:43.212Z,4.53
2022-12-04T06:15:43.174Z,4.53
2022-12-04T06:16:43.228Z,4.54
2022-12-04T06:17:43.179Z,4.56
2022-12-04T06:18:43.139Z,4.54
2022-12-04T06:19:43.125Z,4.53
2022-12-04T06:20:43.197Z,4.49
2022-12-04T06:21:43.099Z,4.51
2022-12-04T06:22:43.106Z,4.51
2022-12-04T06:23:43.094Z,4.51
2022-12-04T06:24:43.066Z,4.54
2022-12-04T06:25:43.056Z,4.56
2022-12-04T06:27:04.007Z,4.54
2022-12-04T06:27:44.056Z,4.53
2022-12-04T06:28:43.027Z,4.53
2022-12-04T06:29:43.024Z,4.56
2022-12-04T06:30:43.015Z,4.57
2022-12-04T06:31:43.071Z,4.57
2022-12-04T06:32:43.946Z,4.54
2022-12-04T06:33:42.968Z,4.53
2022-12-04T06:34:42.976Z,4.51
2022-12-04T06:35:42.948Z,4.50
2022-12-04T06:36:42.937Z,4.50
2022-12-04T06:37:42.939Z,4.47
2022-12-04T06:38:44.158Z,4.47
2022-12-04T06:39:43.297Z,4.51
2022-12-04T06:40:58.216Z,4.51
2022-12-04T06:41:44.194Z,4.53
2022-12-04T06:42:44.524Z,4.54
2022-12-04T06:43:43.877Z,4.56
2022-12-04T06:44:42.879Z,4.56
2022-12-04T06:45:43.182Z,4.57
2022-12-04T06:46:47.089Z,4.59
2022-12-04T06:47:43.057Z,4.54
2022-12-04T06:48:42.826Z,4.51
2022-12-04T06:49:43.058Z,4.54
2022-12-04T06:50:42.809Z,4.56
2022-12-04T06:51:42.789Z,4.56
2022-12-04T06:52:42.785Z,4.54
2022-12-04T06:53:42.755Z,4.54
2022-12-04T06:54:42.766Z,4.57
2022-12-04T06:55:42.739Z,4.59
2022-12-04T06:56:42.931Z,4.56
2022-12-04T06:57:42.727Z,4.59
2022-12-04T06:58:42.718Z,4.57
2022-12-04T06:59:42.709Z,4.59
2022-12-04T07:00:42.771Z,4.59
2022-12-04T07:01:42.798Z,4.56
2022-12-04T07:02:43.397Z,4.59
2022-12-04T07:03:47.818Z,4.61
2022-12-04T07:04:43.787Z,4.59
2022-12-04T07:05:42.650Z,4.62
2022-12-04T07:06:42.629Z,4.59
2022-12-04T07:07:42.704Z,4.59
2022-12-04T07:08:42.609Z,4.61
2022-12-04T07:09:42.583Z,4.62
2022-12-04T07:10:42.591Z,4.64
2022-12-04T07:11:43.270Z,4.65
2022-12-04T07:12:42.599Z,4.67
2022-12-04T07:13:42.553Z,4.68
2022-12-04T07:14:42.550Z,4.67
2022-12-04T07:15:42.530Z,4.65
2022-12-04T07:16:42.887Z,4.67
2022-12-04T07:17:42.509Z,4.67
2022-12-04T07:18:42.520Z,4.68
2022-12-04T07:19:42.500Z,4.71
2022-12-04T07:20:42.499Z,4.68
2022-12-04T07:21:42.470Z,4.68
2022-12-04T07:22:42.458Z,4.69
2022-12-04T07:23:42.439Z,4.68
2022-12-04T07:24:42.440Z,4.69
2022-12-04T07:25:42.429Z,4.71
2022-12-04T07:26:42.422Z,4.72
2022-12-04T07:27:42.400Z,4.74
2022-12-04T07:28:43.391Z,4.71
2022-12-04T07:29:42.420Z,4.71
2022-12-04T07:30:43.635Z,4.71
2022-12-04T07:31:42.452Z,4.71
2022-12-04T07:32:43.371Z,4.71
2022-12-04T07:33:42.343Z,4.74
2022-12-04T07:34:43.349Z,4.74
2022-12-04T07:35:42.322Z,4.75
2022-12-04T07:36:42.458Z,4.75
2022-12-04T07:37:42.590Z,4.77
2022-12-04T07:38:43.023Z,4.79
2022-12-04T07:39:42.280Z,4.79
2022-12-04T07:40:43.232Z,4.79
2022-12-04T07:41:42.249Z,4.79
2022-12-04T07:42:42.281Z,4.79
2022-12-04T07:43:42.232Z,4.83
2022-12-04T07:44:42.474Z,4.79
2022-12-04T07:45:42.287Z,4.77
2022-12-04T07:46:42.249Z,4.79
2022-12-04T07:47:42.182Z,4.79
2022-12-04T07:48:42.226Z,4.79
2022-12-04T07:49:42.251Z,4.83
2022-12-04T07:50:42.174Z,4.84
2022-12-04T07:51:42.163Z,4.84
2022-12-04T07:52:42.136Z,4.84
2022-12-04T07:53:42.117Z,4.84
2022-12-04T07:54:42.144Z,4.86
2022-12-04T07:55:42.124Z,4.86
2022-12-04T07:56:42.093Z,4.88
2022-12-04T07:57:42.084Z,4.88
2022-12-04T07:58:42.304Z,4.91
2022-12-04T07:59:42.061Z,4.91
2022-12-04T08:00:42.043Z,4.93
2022-12-04T08:01:42.101Z,4.94
2022-12-04T08:02:42.013Z,4.93
2022-12-04T08:03:47.131Z,4.93
2022-12-04T08:04:43.056Z,4.93
2022-12-04T08:05:42.005Z,4.94
2022-12-04T08:06:41.972Z,4.94
2022-12-04T08:07:42.004Z,4.94
2022-12-04T08:08:41.966Z,4.93
2022-12-04T08:09:41.944Z,4.96
2022-12-04T08:10:41.945Z,4.96
2022-12-04T08:11:41.913Z,4.97
2022-12-04T08:12:41.915Z,4.97
2022-12-04T08:13:41.904Z,5.01
2022-12-04T08:14:41.914Z,4.99
2022-12-04T08:15:41.865Z,5.01
2022-12-04T08:16:41.932Z,5.01
2022-12-04T08:17:41.856Z,5.04
2022-12-04T08:18:41.853Z,5.04
2022-12-04T08:19:41.844Z,5.05
2022-12-04T08:20:41.842Z,5.05
2022-12-04T08:21:41.804Z,5.05
2022-12-04T08:22:41.800Z,5.02
2022-12-04T08:23:41.805Z,5.05
2022-12-04T08:24:41.782Z,5.05
2022-12-04T08:25:41.780Z,5.04
2022-12-04T08:26:41.784Z,5.04
2022-12-04T08:27:47.171Z,5.05
2022-12-04T08:28:42.735Z,5.02
2022-12-04T08:29:41.722Z,5.02
2022-12-04T08:30:41.791Z,5.01
2022-12-04T08:31:41.716Z,5.02
2022-12-04T08:32:41.694Z,5.01
2022-12-04T08:33:41.776Z,4.99
2022-12-04T08:34:41.676Z,4.97
2022-12-04T08:35:41.735Z,4.97
2022-12-04T08:36:41.663Z,4.99
2022-12-04T08:37:41.647Z,4.99
2022-12-04T08:38:41.647Z,5.01
2022-12-04T08:39:41.615Z,5.02
2022-12-04T08:40:41.607Z,5.04
2022-12-04T08:41:41.602Z,5.05
2022-12-04T08:42:41.595Z,5.05
2022-12-04T08:43:41.602Z,5.06
2022-12-04T08:44:41.577Z,5.06
2022-12-04T08:45:41.556Z,5.08
2022-12-04T08:46:41.672Z,5.08
2022-12-04T08:47:41.537Z,5.08
2022-12-04T08:48:41.545Z,5.09
2022-12-04T08:49:41.508Z,5.09
2022-12-04T08:50:41.515Z,5.09
2022-12-04T08:51:41.487Z,5.09
2022-12-04T08:52:41.474Z,5.11
2022-12-04T08:53:41.487Z,5.11
2022-12-04T08:54:41.467Z,5.12
2022-12-04T08:55:41.497Z,5.11
2022-12-04T08:56:41.448Z,5.11
2022-12-04T08:57:41.417Z,5.12
2022-12-04T08:58:41.407Z,5.14
2022-12-04T08:59:41.407Z,5.15
2022-12-04T09:00:41.431Z,5.14
2022-12-04T09:01:41.423Z,5.08
2022-12-04T09:02:41.376Z,5.08
2022-12-04T09:03:41.366Z,5.08
2022-12-04T09:04:41.417Z,5.08
2022-12-04T09:05:41.361Z,5.08
2022-12-04T09:06:41.329Z,5.02
2022-12-04T09:07:41.363Z,4.97
2022-12-04T09:08:41.297Z,4.97
2022-12-04T09:09:47.939Z,4.97
2022-12-04T09:10:42.316Z,4.97
2022-12-04T09:11:41.268Z,4.97
2022-12-04T09:12:41.268Z,5.02
2022-12-04T09:13:41.237Z,5.02
2022-12-04T09:14:41.240Z,5.02
2022-12-04T09:15:41.375Z,5.06
2022-12-04T09:16:41.229Z,5.05
2022-12-04T09:17:41.218Z,5.06
2022-12-04T09:18:41.205Z,5.08
2022-12-04T09:19:41.189Z,5.09
2022-12-04T09:20:41.199Z,5.11
2022-12-04T09:21:41.199Z,5.11
2022-12-04T09:23:02.699Z,5.11
2022-12-04T09:23:42.129Z,5.14
2022-12-04T09:24:41.189Z,5.15
2022-12-04T09:25:41.139Z,5.15
2022-12-04T09:26:41.119Z,5.14
2022-12-04T09:27:41.089Z,5.14
2022-12-04T09:28:41.091Z,5.15
2022-12-04T09:29:41.084Z,5.14
2022-12-04T09:30:41.126Z,5.14
2022-12-04T09:31:41.133Z,5.14
2022-12-04T09:32:41.039Z,5.12
2022-12-04T09:33:41.037Z,5.12
2022-12-04T09:34:41.048Z,5.14
2022-12-04T09:35:41.019Z,5.14
2022-12-04T09:36:41.011Z,5.12
2022-12-04T09:37:40.987Z,5.14
2022-12-04T09:38:40.999Z,5.15
2022-12-04T09:39:41.005Z,5.17
2022-12-04T09:40:40.967Z,5.19
2022-12-04T09:41:40.980Z,5.20
2022-12-04T09:42:40.938Z,5.23
2022-12-04T09:43:40.927Z,5.23
2022-12-04T09:44:40.923Z,5.23
2022-12-04T09:45:40.921Z,5.23
2022-12-04T09:46:40.977Z,5.23
2022-12-04T09:47:40.888Z,5.22
2022-12-04T09:48:40.881Z,5.20
2022-12-04T09:49:40.871Z,5.20
2022-12-04T09:50:40.850Z,5.23
2022-12-04T09:51:40.855Z,5.24
2022-12-04T09:52:40.851Z,5.22
2022-12-04T09:53:40.827Z,5.24
2022-12-04T09:54:40.801Z,5.26
2022-12-04T09:55:40.792Z,5.24
2022-12-04T09:56:40.799Z,5.27
2022-12-04T09:57:40.788Z,5.30
2022-12-04T09:58:40.778Z,5.32
2022-12-04T09:59:40.761Z,5.30
2022-12-04T10:00:40.742Z,5.30
2022-12-04T10:01:40.741Z,5.29
2022-12-04T10:02:40.839Z,5.27
2022-12-04T10:03:40.842Z,5.26
2022-12-04T10:04:40.699Z,5.27
2022-12-04T10:05:40.702Z,5.27
2022-12-04T10:06:40.751Z,5.27
2022-12-04T10:07:40.705Z,5.30
2022-12-04T10:08:40.665Z,5.30
2022-12-04T10:09:40.652Z,5.27
2022-12-04T10:10:40.663Z,5.24
2022-12-04T10:11:40.625Z,5.23
2022-12-04T10:12:40.623Z,5.23
2022-12-04T10:13:40.593Z,5.26
2022-12-04T10:14:40.595Z,5.29
2022-12-04T10:15:40.634Z,5.29
2022-12-04T10:16:40.567Z,5.32
2022-12-04T10:17:40.562Z,5.32
2022-12-04T10:18:40.543Z,5.32
2022-12-04T10:19:40.563Z,5.32
2022-12-04T10:20:40.512Z,5.33
2022-12-04T10:21:40.525Z,5.33
2022-12-04T10:22:40.512Z,5.33
2022-12-04T10:23:40.493Z,5.35
2022-12-04T10:24:40.492Z,5.33
2022-12-04T10:25:40.474Z,5.35
2022-12-04T10:26:40.473Z,5.32
2022-12-04T10:27:40.462Z,5.30
2022-12-04T10:28:40.445Z,5.30
2022-12-04T10:29:40.447Z,5.29
2022-12-04T10:30:40.414Z,5.27
2022-12-04T10:31:40.450Z,5.30
2022-12-04T10:32:40.431Z,5.27
2022-12-04T10:33:40.404Z,5.26
2022-12-04T10:34:45.429Z,5.27
2022-12-04T10:35:41.395Z,5.30
2022-12-04T10:36:40.357Z,5.33
2022-12-04T10:37:40.363Z,5.32
2022-12-04T10:38:40.353Z,5.33
2022-12-04T10:39:40.335Z,5.35
2022-12-04T10:40:40.340Z,5.35
2022-12-04T10:41:40.315Z,5.33
2022-12-04T10:42:40.306Z,5.37
2022-12-04T10:43:40.284Z,5.35
2022-12-04T10:44:40.281Z,5.37
2022-12-04T10:45:40.294Z,5.33
2022-12-04T10:46:45.527Z,5.32
2022-12-04T10:47:41.245Z,5.29
2022-12-04T10:48:40.229Z,5.27
2022-12-04T10:49:40.237Z,5.27
2022-12-04T10:50:40.213Z,5.29
2022-12-04T10:51:40.234Z,5.29
2022-12-04T10:52:40.176Z,5.24
2022-12-04T10:53:40.195Z,5.24
2022-12-04T10:54:40.234Z,5.26
2022-12-04T10:55:40.163Z,5.29
2022-12-04T10:56:40.147Z,5.29
2022-12-04T10:57:40.145Z,5.29
2022-12-04T10:58:40.126Z,5.29
2022-12-04T10:59:40.116Z,5.29
2022-12-04T11:00:40.107Z,5.29
2022-12-04T11:01:40.179Z,5.30
2022-12-04T11:02:40.166Z,5.32
2022-12-04T11:03:40.134Z,5.30
2022-12-04T11:04:40.056Z,5.32
2022-12-04T11:05:40.046Z,5.33
2022-12-04T11:06:40.057Z,5.32
2022-12-04T11:07:40.059Z,5.33
2022-12-04T11:08:40.034Z,5.27
2022-12-04T11:09:40.023Z,5.27
2022-12-04T11:10:39.988Z,5.26
2022-12-04T11:11:39.986Z,5.26
2022-12-04T11:12:39.977Z,5.24
2022-12-04T11:13:39.968Z,5.26
2022-12-04T11:14:45.521Z,5.26
2022-12-04T11:15:40.973Z,5.22
2022-12-04T11:16:40.077Z,5.20
2022-12-04T11:17:39.916Z,5.17
2022-12-04T11:18:39.917Z,5.19
2022-12-04T11:19:40.197Z,5.14
2022-12-04T11:20:44.026Z,5.15
2022-12-04T11:21:40.867Z,5.19
2022-12-04T11:22:39.875Z,5.20
2022-12-04T11:23:39.858Z,5.20
2022-12-04T11:24:39.858Z,5.22
2022-12-04T11:25:39.828Z,5.22
2022-12-04T11:26:39.814Z,5.23
2022-12-04T11:27:39.817Z,5.22
2022-12-04T11:28:42.519Z,5.23
2022-12-04T11:29:39.798Z,5.22
2022-12-04T11:30:39.778Z,5.24
2022-12-04T11:31:39.836Z,5.20
2022-12-04T11:32:39.771Z,5.17
2022-12-04T11:33:39.839Z,5.17
2022-12-04T11:34:39.738Z,5.17
2022-12-04T11:35:39.720Z,5.19
2022-12-04T11:36:39.798Z,5.14
2022-12-04T11:37:45.137Z,5.12
2022-12-04T11:38:40.709Z,5.09
2022-12-04T11:39:39.678Z,5.08
2022-12-04T11:40:39.677Z,5.08
2022-12-04T11:41:39.673Z,5.05
2022-12-04T11:42:39.648Z,5.09
2022-12-04T11:43:39.639Z,5.12
2022-12-04T11:44:39.636Z,5.15
2022-12-04T11:45:39.632Z,5.15
2022-12-04T11:46:39.642Z,5.17
2022-12-04T11:47:39.610Z,5.17
2022-12-04T11:48:39.680Z,5.20
2022-12-04T11:49:43.731Z,5.20
2022-12-04T11:50:39.557Z,5.22
2022-12-04T11:51:39.574Z,5.22
2022-12-04T11:52:39.549Z,5.19
2022-12-04T11:53:39.532Z,5.15
2022-12-04T11:54:39.589Z,5.17
2022-12-04T11:55:39.519Z,5.20
2022-12-04T11:56:39.509Z,5.20
2022-12-04T11:57:39.488Z,5.19
2022-12-04T11:58:39.550Z,5.20
2022-12-04T11:59:39.479Z,5.22
2022-12-04T12:00:39.452Z,5.24
2022-12-04T12:01:39.493Z,5.27
2022-12-04T12:02:39.584Z,5.32
2022-12-04T12:03:39.577Z,5.33
2022-12-04T12:04:39.402Z,5.35
2022-12-04T12:05:39.430Z,5.35
2022-12-04T12:06:39.401Z,5.40
2022-12-04T12:07:39.423Z,5.40
2022-12-04T12:08:39.361Z,5.40
2022-12-04T12:09:39.368Z,5.42
2022-12-04T12:10:44.390Z,5.44
2022-12-04T12:11:40.349Z,5.44
2022-12-04T12:12:39.350Z,5.45
2022-12-04T12:13:39.434Z,5.48
2022-12-04T12:14:39.311Z,5.44
2022-12-04T12:15:39.299Z,5.40
2022-12-04T12:16:39.323Z,5.37
2022-12-04T12:17:39.283Z,5.35
2022-12-04T12:18:39.272Z,5.32
2022-12-04T12:19:39.249Z,5.27
2022-12-04T12:20:39.231Z,5.23
2022-12-04T12:21:39.241Z,5.22
2022-12-04T12:22:39.291Z,5.23
2022-12-04T12:23:39.208Z,5.23
2022-12-04T12:24:40.190Z,5.27
2022-12-04T12:25:39.191Z,5.29
2022-12-04T12:26:39.180Z,5.27
2022-12-04T12:27:39.249Z,5.26
2022-12-04T12:28:39.163Z,5.27
2022-12-04T12:29:39.192Z,5.29
2022-12-04T12:30:39.151Z,5.35
2022-12-04T12:31:39.205Z,5.37
2022-12-04T12:32:39.114Z,5.37
2022-12-04T12:33:39.451Z,5.38
2022-12-04T12:34:39.081Z,5.33
2022-12-04T12:35:39.081Z,5.30
2022-12-04T12:36:43.613Z,5.26
2022-12-04T12:37:39.087Z,5.23
2022-12-04T12:38:39.042Z,5.23
2022-12-04T12:39:39.305Z,5.22
2022-12-04T12:40:39.033Z,5.26
2022-12-04T12:41:39.013Z,5.27
2022-12-04T12:42:39.076Z,5.29
2022-12-04T12:43:39.058Z,5.35
2022-12-04T12:44:38.995Z,5.38
2022-12-04T12:45:39.067Z,5.42
2022-12-04T12:46:38.953Z,5.49
2022-12-04T12:47:38.961Z,5.52
2022-12-04T12:48:38.994Z,5.55
2022-12-04T12:49:38.934Z,5.58
2022-12-04T12:50:38.923Z,5.60
2022-12-04T12:51:38.903Z,5.65
2022-12-04T12:52:38.892Z,5.66
2022-12-04T12:53:38.893Z,5.65
2022-12-04T12:54:38.893Z,5.63
2022-12-04T12:55:38.884Z,5.66
2022-12-04T12:56:38.934Z,5.67
2022-12-04T12:57:38.882Z,5.67
2022-12-04T12:58:38.834Z,5.66
2022-12-04T12:59:38.827Z,5.63
2022-12-04T13:00:38.805Z,5.62
2022-12-04T13:01:38.861Z,5.63
2022-12-04T13:02:38.825Z,5.62
2022-12-04T13:03:38.780Z,5.66
2022-12-04T13:04:38.800Z,5.62
2022-12-04T13:05:38.775Z,5.62
2022-12-04T13:06:38.737Z,5.60
2022-12-04T13:07:38.763Z,5.62
2022-12-04T13:08:38.734Z,5.62
2022-12-04T13:09:38.723Z,5.65
2022-12-04T13:10:38.890Z,5.63
2022-12-04T13:11:38.706Z,5.65
2022-12-04T13:12:38.695Z,5.66
2022-12-04T13:13:38.674Z,5.67
2022-12-04T13:14:38.655Z,5.69
2022-12-04T13:15:38.662Z,5.69
2022-12-04T13:16:38.738Z,5.67
2022-12-04T13:17:38.665Z,5.69
2022-12-04T13:18:38.645Z,5.70